Time;durP1;ratioP1;P1;durP2;ratioP2;P2;SDS_P1;SDS_P2;PMS_P1;PMS_P2;Temp;Humidity;BMP_temperature;BMP_pressure;BME280_temperature;BME280_humidity;BME280_pressure;Samples;Min_cycle;Max_cycle;Signal;HPM_P1;HPM_P2
2022/07/29 00:00:00;;;;;;;;;;;12.10;99.90;;;;;;5094319;28;19988;-69
2022/07/29 00:02:27;;;;;;;;;;;12.20;99.90;;;;;;5094706;28;19908;-69
2022/07/29 00:04:54;;;;;;;;;;;12.20;99.90;;;;;;5094485;28;19915;-70
2022/07/29 00:07:21;;;;;;;;;;;12.20;99.90;;;;;;5094523;28;20002;-69
2022/07/29 00:09:47;;;;;;;;;;;12.20;99.90;;;;;;5094480;28;19991;-70
2022/07/29 00:12:14;;;;;;;;;;;12.30;99.90;;;;;;5094307;28;19916;-70
2022/07/29 00:14:41;;;;;;;;;;;12.30;99.90;;;;;;5094024;28;20216;-70
2022/07/29 00:17:07;;;;;;;;;;;12.40;99.90;;;;;;5094306;28;19915;-70
2022/07/29 00:19:34;;;;;;;;;;;12.40;99.90;;;;;;5094068;28;20009;-69
2022/07/29 00:22:01;;;;;;;;;;;12.50;99.90;;;;;;5094324;28;19919;-70
2022/07/29 00:24:28;;;;;;;;;;;12.50;99.90;;;;;;5094269;28;19955;-70
2022/07/29 00:26:54;;;;;;;;;;;12.60;99.90;;;;;;5094029;28;19920;-70
2022/07/29 00:29:21;;;;;;;;;;;12.60;99.90;;;;;;5093813;28;20005;-70
2022/07/29 00:31:48;;;;;;;;;;;12.70;99.90;;;;;;5093806;28;19908;-69
2022/07/29 00:37:00;;;;;;;;;;;12.90;99.90;;;;;;5093798;28;20011;-70
2022/07/29 00:39:26;;;;;;;;;;;13.00;99.90;;;;;;5093784;28;19915;-70
2022/07/29 00:41:53;;;;;;;;;;;13.00;99.90;;;;;;5093736;28;19908;-69
2022/07/29 00:44:20;;;;;;;;;;;13.00;99.90;;;;;;5093550;28;19908;-70
2022/07/29 00:46:46;;;;;;;;;;;12.90;99.90;;;;;;5093730;28;19923;-68
2022/07/29 00:49:13;;;;;;;;;;;12.90;99.90;;;;;;5093908;28;20343;-69
2022/07/29 00:51:40;;;;;;;;;;;12.90;99.90;;;;;;5093825;28;19912;-69
2022/07/29 00:54:07;;;;;;;;;;;12.90;99.90;;;;;;5093546;28;19908;-69
2022/07/29 00:56:34;;;;;;;;;;;13.00;99.90;;;;;;5093551;28;19912;-69
2022/07/29 00:59:00;;;;;;;;;;;13.00;99.90;;;;;;5093284;28;19912;-70
2022/07/29 01:01:28;;;;;;;;;;;13.10;99.90;;;;;;5093414;28;19920;-69
2022/07/29 01:03:54;;;;;;;;;;;13.10;99.90;;;;;;5091883;28;19908;-69
2022/07/29 01:06:21;;;;;;;;;;;13.10;99.90;;;;;;5093153;28;20046;-70
2022/07/29 01:08:49;;;;;;;;;;;13.20;99.90;;;;;;5093392;28;19970;-70
2022/07/29 01:11:16;;;;;;;;;;;13.40;99.90;;;;;;5093493;28;19912;-69
2022/07/29 01:13:44;;;;;;;;;;;13.70;99.90;;;;;;5093418;28;19916;-69
2022/07/29 01:16:15;;;;;;;;;;;13.90;99.90;;;;;;5093017;28;19981;-70
2022/07/29 01:18:48;;;;;;;;;;;14.20;99.00;;;;;;5093562;28;20358;-71
2022/07/29 01:21:14;;;;;;;;;;;14.40;99.50;;;;;;5092118;28;19920;-70
2022/07/29 01:23:48;;;;;;;;;;;14.30;99.30;;;;;;5093692;28;19919;-70
2022/07/29 01:26:28;;;;;;;;;;;14.40;99.10;;;;;;5093227;28;20389;-70
2022/07/29 01:29:13;;;;;;;;;;;14.60;99.30;;;;;;5093598;28;19985;-70
2022/07/29 01:31:49;;;;;;;;;;;14.60;98.90;;;;;;5093647;28;19947;-70
2022/07/29 01:34:22;;;;;;;;;;;14.40;98.70;;;;;;5093143;28;19914;-69
2022/07/29 01:36:57;;;;;;;;;;;14.20;99.30;;;;;;5093429;28;19915;-70
2022/07/29 01:39:33;;;;;;;;;;;14.20;99.60;;;;;;5083990;28;19955;-70
2022/07/29 01:42:08;;;;;;;;;;;14.10;99.40;;;;;;5069196;28;19913;-69
2022/07/29 01:44:38;;;;;;;;;;;14.00;99.00;;;;;;5073989;28;20420;-70
2022/07/29 01:47:17;;;;;;;;;;;13.90;98.90;;;;;;5073055;28;19917;-69
2022/07/29 01:49:47;;;;;;;;;;;14.00;98.90;;;;;;5072988;28;19916;-70
2022/07/29 01:52:20;;;;;;;;;;;14.00;99.00;;;;;;5072891;28;19939;-70
2022/07/29 01:54:53;;;;;;;;;;;14.10;99.30;;;;;;5072853;28;20370;-70
2022/07/29 01:57:24;;;;;;;;;;;14.10;99.20;;;;;;5072962;28;19924;-70
2022/07/29 01:59:51;;;;;;;;;;;14.20;98.60;;;;;;5072641;28;19924;-69
2022/07/29 02:02:18;;;;;;;;;;;14.20;98.50;;;;;;5073022;28;20007;-69
2022/07/29 02:04:48;;;;;;;;;;;14.30;99.00;;;;;;5072687;28;20279;-69
2022/07/29 02:07:17;;;;;;;;;;;14.40;97.90;;;;;;5072750;28;19981;-69
2022/07/29 02:09:45;;;;;;;;;;;14.40;97.60;;;;;;5072728;28;19916;-69
2022/07/29 02:12:13;;;;;;;;;;;14.30;97.50;;;;;;5072372;28;19908;-69
2022/07/29 02:14:42;;;;;;;;;;;14.30;97.50;;;;;;5073313;28;19913;-69
2022/07/29 02:17:09;;;;;;;;;;;14.30;96.10;;;;;;5076402;28;19931;-69
2022/07/29 02:19:37;;;;;;;;;;;14.20;96.60;;;;;;5076164;28;19909;-69
2022/07/29 02:22:05;;;;;;;;;;;14.10;95.50;;;;;;5076050;28;19908;-69
2022/07/29 02:24:33;;;;;;;;;;;14.10;95.90;;;;;;5076229;28;19908;-70
2022/07/29 02:27:00;;;;;;;;;;;14.20;96.70;;;;;;5076429;28;20313;-69
2022/07/29 02:29:29;;;;;;;;;;;14.40;96.00;;;;;;5108567;28;19917;-69
2022/07/29 02:31:57;;;;;;;;;;;14.40;94.90;;;;;;5075967;28;19909;-69
2022/07/29 02:34:24;;;;;;;;;;;14.30;95.30;;;;;;5075845;28;19908;-69
2022/07/29 02:36:52;;;;;;;;;;;14.30;94.60;;;;;;5076067;28;20298;-70
2022/07/29 02:39:20;;;;;;;;;;;14.30;94.50;;;;;;5075892;28;19916;-69
2022/07/29 02:41:47;;;;;;;;;;;14.40;94.50;;;;;;5108267;28;19943;-69
2022/07/29 02:44:16;;;;;;;;;;;14.50;94.40;;;;;;5075663;28;20337;-69
2022/07/29 02:46:58;;;;;;;;;;;14.50;94.50;;;;;;5075658;28;19932;-69
2022/07/29 02:49:31;;;;;;;;;;;14.60;94.40;;;;;;5075961;28;19916;-69
2022/07/29 02:52:05;;;;;;;;;;;14.60;94.00;;;;;;5076030;28;19940;-69
2022/07/29 02:54:38;;;;;;;;;;;14.60;94.20;;;;;;5075617;28;19909;-68
2022/07/29 02:57:09;;;;;;;;;;;14.60;93.60;;;;;;5075885;28;20011;-69
2022/07/29 02:59:37;;;;;;;;;;;14.50;93.80;;;;;;5075715;28;20321;-69
2022/07/29 03:02:05;;;;;;;;;;;14.50;93.60;;;;;;5075633;28;19909;-68
2022/07/29 03:04:32;;;;;;;;;;;14.70;92.00;;;;;;5076126;28;19908;-69
2022/07/29 03:07:00;;;;;;;;;;;14.70;91.80;;;;;;5076575;28;19917;-68
2022/07/29 03:09:27;;;;;;;;;;;14.60;91.60;;;;;;5080246;28;19909;-69
2022/07/29 03:11:55;;;;;;;;;;;14.50;91.30;;;;;;5082831;28;19912;-69
2022/07/29 03:14:22;;;;;;;;;;;14.50;90.90;;;;;;5076497;28;19909;-69
2022/07/29 03:16:49;;;;;;;;;;;14.60;91.30;;;;;;5076015;28;20367;-70
2022/07/29 03:19:16;;;;;;;;;;;14.50;90.60;;;;;;5084587;28;20393;-70
2022/07/29 03:21:43;;;;;;;;;;;14.60;90.90;;;;;;5067917;28;20336;-69
2022/07/29 03:24:10;;;;;;;;;;;14.60;91.20;;;;;;5074863;28;19908;-70
2022/07/29 03:26:37;;;;;;;;;;;14.70;91.50;;;;;;5074548;28;20015;-69
2022/07/29 03:29:03;;;;;;;;;;;14.70;91.70;;;;;;5076881;28;19916;-69
2022/07/29 03:31:30;;;;;;;;;;;14.80;92.10;;;;;;5074616;28;19909;-69
2022/07/29 03:33:57;;;;;;;;;;;14.70;91.50;;;;;;5085139;28;20326;-69
2022/07/29 03:36:24;;;;;;;;;;;14.80;91.40;;;;;;5094615;28;19951;-69
2022/07/29 03:38:51;;;;;;;;;;;14.70;91.20;;;;;;5095485;28;19935;-69
2022/07/29 03:41:18;;;;;;;;;;;14.60;91.00;;;;;;5095554;28;19908;-69
2022/07/29 03:43:47;;;;;;;;;;;14.60;91.30;;;;;;5095254;28;19995;-69
2022/07/29 03:46:14;;;;;;;;;;;14.60;91.40;;;;;;5095046;28;19923;-69
2022/07/29 03:48:43;;;;;;;;;;;14.40;91.20;;;;;;5095555;28;19931;-69
2022/07/29 03:51:09;;;;;;;;;;;14.40;91.20;;;;;;5094982;28;19908;-69
2022/07/29 03:53:37;;;;;;;;;;;14.40;91.80;;;;;;5095017;28;19918;-69
2022/07/29 03:56:04;;;;;;;;;;;14.50;91.30;;;;;;5094440;28;19931;-69
2022/07/29 03:58:32;;;;;;;;;;;14.40;91.90;;;;;;5094757;28;20321;-69
2022/07/29 04:00:59;;;;;;;;;;;14.40;91.80;;;;;;5093654;28;20341;-69
2022/07/29 04:03:26;;;;;;;;;;;14.40;91.90;;;;;;5094536;28;19923;-71
2022/07/29 04:05:59;;;;;;;;;;;14.40;91.30;;;;;;5094391;28;20297;-70
2022/07/29 04:08:26;;;;;;;;;;;14.30;91.30;;;;;;5094473;28;19912;-69
2022/07/29 04:10:53;;;;;;;;;;;14.20;91.80;;;;;;5094452;28;19944;-69
2022/07/29 04:13:21;;;;;;;;;;;14.20;92.10;;;;;;5094266;28;19908;-69
2022/07/29 04:15:47;;;;;;;;;;;14.20;92.60;;;;;;5094351;28;19915;-69
2022/07/29 04:18:14;;;;;;;;;;;14.20;92.10;;;;;;5094214;28;19961;-69
2022/07/29 04:20:41;;;;;;;;;;;14.10;92.40;;;;;;5094239;28;19912;-69
2022/07/29 04:23:08;;;;;;;;;;;14.20;92.10;;;;;;5094240;28;19908;-69
2022/07/29 04:25:37;;;;;;;;;;;14.20;92.80;;;;;;5094104;28;20007;-69
2022/07/29 04:28:04;;;;;;;;;;;14.20;92.50;;;;;;5094297;28;20266;-69
2022/07/29 04:30:31;;;;;;;;;;;14.30;92.20;;;;;;5094160;28;20440;-69
2022/07/29 04:32:58;;;;;;;;;;;14.20;92.10;;;;;;5094068;28;19908;-68
2022/07/29 04:35:26;;;;;;;;;;;14.10;93.20;;;;;;5094290;28;19915;-68
2022/07/29 04:37:53;;;;;;;;;;;14.10;93.20;;;;;;5093507;28;19953;-69
2022/07/29 04:40:20;;;;;;;;;;;14.20;93.20;;;;;;5093996;28;19908;-70
2022/07/29 04:42:46;;;;;;;;;;;14.20;93.40;;;;;;5094171;28;19915;-69
2022/07/29 04:45:13;;;;;;;;;;;14.10;93.30;;;;;;5093796;28;19912;-69
2022/07/29 04:47:41;;;;;;;;;;;14.10;93.70;;;;;;5093978;28;19916;-70
2022/07/29 04:50:08;;;;;;;;;;;14.20;93.30;;;;;;5093747;28;19916;-70
2022/07/29 04:52:35;;;;;;;;;;;14.10;93.70;;;;;;5093897;28;19908;-70
2022/07/29 04:55:03;;;;;;;;;;;14.10;93.40;;;;;;5093862;28;19908;-70
2022/07/29 04:57:30;;;;;;;;;;;14.20;93.80;;;;;;5095804;28;19961;-71
2022/07/29 04:59:57;;;;;;;;;;;14.10;93.70;;;;;;5096772;28;19927;-69
2022/07/29 05:02:24;;;;;;;;;;;14.20;94.10;;;;;;5093930;28;19919;-68
2022/07/29 05:04:51;;;;;;;;;;;14.10;93.60;;;;;;5093630;28;19912;-69
2022/07/29 05:07:17;;;;;;;;;;;14.10;94.00;;;;;;5092388;28;19912;-68
2022/07/29 05:09:44;;;;;;;;;;;14.00;94.20;;;;;;5093537;28;19908;-71
2022/07/29 05:12:11;;;;;;;;;;;14.00;94.20;;;;;;5093201;28;19912;-68
2022/07/29 05:14:38;;;;;;;;;;;14.00;94.80;;;;;;5092773;28;20369;-69
2022/07/29 05:17:05;;;;;;;;;;;14.00;94.90;;;;;;5093532;28;20415;-68
2022/07/29 05:19:37;;;;;;;;;;;14.00;95.10;;;;;;5093913;28;19931;-69
2022/07/29 05:22:04;;;;;;;;;;;14.00;94.60;;;;;;5092183;28;20257;-69
2022/07/29 05:24:30;;;;;;;;;;;13.90;94.70;;;;;;5093607;28;19916;-70
2022/07/29 05:26:57;;;;;;;;;;;13.90;95.00;;;;;;5093552;28;19985;-69
2022/07/29 05:29:24;;;;;;;;;;;13.90;95.10;;;;;;5093322;28;19912;-69
2022/07/29 05:31:52;;;;;;;;;;;13.90;95.10;;;;;;5093351;28;19969;-69
2022/07/29 05:34:19;;;;;;;;;;;13.90;94.50;;;;;;5093305;28;19953;-69
2022/07/29 05:36:46;;;;;;;;;;;13.90;94.20;;;;;;5093384;28;19909;-68
2022/07/29 05:39:13;;;;;;;;;;;13.90;94.40;;;;;;5093375;28;19908;-70
2022/07/29 05:41:40;;;;;;;;;;;13.90;93.80;;;;;;5093364;28;19912;-69
2022/07/29 05:44:06;;;;;;;;;;;13.90;93.60;;;;;;5092882;28;19912;-70
2022/07/29 05:46:33;;;;;;;;;;;13.90;93.80;;;;;;5093155;28;19927;-69
2022/07/29 05:49:00;;;;;;;;;;;13.90;93.50;;;;;;5093371;28;19914;-68
2022/07/29 05:51:27;;;;;;;;;;;13.80;93.40;;;;;;5096628;28;19908;-70
2022/07/29 05:53:53;;;;;;;;;;;13.70;94.10;;;;;;5097263;28;19908;-69
2022/07/29 05:56:20;;;;;;;;;;;13.60;94.20;;;;;;5096857;28;19943;-69
2022/07/29 05:58:47;;;;;;;;;;;13.60;94.50;;;;;;5096675;28;19914;-69
2022/07/29 06:01:13;;;;;;;;;;;13.60;94.70;;;;;;5097080;28;19974;-69
2022/07/29 06:03:41;;;;;;;;;;;13.60;94.80;;;;;;5097143;28;19938;-69
2022/07/29 06:06:08;;;;;;;;;;;13.60;94.90;;;;;;5096590;28;19923;-69
2022/07/29 06:08:36;;;;;;;;;;;13.60;94.70;;;;;;5097195;28;20377;-70
2022/07/29 06:11:03;;;;;;;;;;;13.50;93.90;;;;;;5097033;28;19908;-70
2022/07/29 06:13:30;;;;;;;;;;;13.50;93.80;;;;;;5097259;28;19931;-71
2022/07/29 06:15:59;;;;;;;;;;;13.40;94.20;;;;;;5096978;28;19992;-70
2022/07/29 06:18:26;;;;;;;;;;;13.40;94.50;;;;;;5096761;28;19930;-71
2022/07/29 06:20:54;;;;;;;;;;;13.40;94.30;;;;;;5096817;28;20000;-70
2022/07/29 06:23:21;;;;;;;;;;;13.30;94.50;;;;;;5096743;28;19919;-71
2022/07/29 06:25:48;;;;;;;;;;;13.30;94.90;;;;;;5097074;28;19920;-70
2022/07/29 06:28:15;;;;;;;;;;;13.20;95.00;;;;;;5097971;28;19922;-69
2022/07/29 06:30:42;;;;;;;;;;;13.20;95.40;;;;;;5099075;28;19912;-70
2022/07/29 06:33:10;;;;;;;;;;;13.20;95.90;;;;;;5097803;28;20363;-69
2022/07/29 06:35:38;;;;;;;;;;;13.20;95.90;;;;;;5099340;28;19908;-70
2022/07/29 06:38:05;;;;;;;;;;;13.10;96.30;;;;;;5100927;28;19916;-70
2022/07/29 06:43:16;;;;;;;;;;;13.10;96.20;;;;;;5098918;28;19915;-69
2022/07/29 06:45:44;;;;;;;;;;;13.00;96.50;;;;;;5096871;28;20002;-69
2022/07/29 06:48:11;;;;;;;;;;;13.10;96.50;;;;;;5097482;28;19916;-69
2022/07/29 06:50:39;;;;;;;;;;;13.00;96.40;;;;;;5096880;28;20293;-69
2022/07/29 06:53:06;;;;;;;;;;;13.00;96.30;;;;;;5092596;28;19908;-69
2022/07/29 06:55:32;;;;;;;;;;;13.00;96.30;;;;;;5094051;28;19908;-70
2022/07/29 06:58:02;;;;;;;;;;;12.90;96.30;;;;;;5094116;28;19912;-69
2022/07/29 07:00:30;;;;;;;;;;;12.90;96.30;;;;;;5093436;28;19928;-69
2022/07/29 07:02:57;;;;;;;;;;;12.90;96.80;;;;;;5094153;28;19908;-69
2022/07/29 07:05:23;;;;;;;;;;;12.80;96.70;;;;;;5092171;28;20525;-69
2022/07/29 07:07:50;;;;;;;;;;;12.90;96.80;;;;;;5093999;28;19912;-69
2022/07/29 07:10:17;;;;;;;;;;;12.80;97.30;;;;;;5094077;28;19919;-69
2022/07/29 07:12:43;;;;;;;;;;;12.80;97.60;;;;;;5094029;28;19958;-69
2022/07/29 07:15:10;;;;;;;;;;;12.80;97.60;;;;;;5093914;28;20003;-69
2022/07/29 07:17:37;;;;;;;;;;;12.80;97.20;;;;;;5093490;28;19908;-69
2022/07/29 07:20:05;;;;;;;;;;;12.80;96.90;;;;;;5093604;28;20316;-70
2022/07/29 07:22:32;;;;;;;;;;;12.80;97.10;;;;;;5093885;28;20010;-69
2022/07/29 07:24:59;;;;;;;;;;;12.80;97.70;;;;;;5093860;28;19912;-69
2022/07/29 07:27:27;;;;;;;;;;;12.70;97.30;;;;;;5093699;28;20400;-70
2022/07/29 07:29:53;;;;;;;;;;;12.80;97.10;;;;;;5093994;28;19912;-70
2022/07/29 07:32:20;;;;;;;;;;;12.70;97.00;;;;;;5093204;28;20018;-68
2022/07/29 07:34:47;;;;;;;;;;;12.80;97.50;;;;;;5093439;28;20538;-69
2022/07/29 07:37:14;;;;;;;;;;;12.70;97.00;;;;;;5093242;28;20266;-71
2022/07/29 07:39:41;;;;;;;;;;;12.70;97.30;;;;;;5093560;28;19958;-69
2022/07/29 07:42:12;;;;;;;;;;;12.70;97.50;;;;;;5093483;28;19908;-70
2022/07/29 07:44:39;;;;;;;;;;;12.70;97.20;;;;;;5093255;28;19913;-71
2022/07/29 07:47:09;;;;;;;;;;;12.80;97.30;;;;;;5093789;28;19920;-69
2022/07/29 07:49:36;;;;;;;;;;;12.80;97.50;;;;;;5093446;28;19995;-71
2022/07/29 07:52:02;;;;;;;;;;;12.80;97.60;;;;;;5093072;28;19912;-70
2022/07/29 07:54:29;;;;;;;;;;;12.70;97.70;;;;;;5092981;28;20333;-69
2022/07/29 07:56:56;;;;;;;;;;;12.70;97.80;;;;;;5090983;28;19912;-69
2022/07/29 07:59:23;;;;;;;;;;;12.70;98.30;;;;;;5092715;28;19916;-71
2022/07/29 08:01:50;;;;;;;;;;;12.70;97.80;;;;;;5092902;28;19912;-69
2022/07/29 08:04:17;;;;;;;;;;;12.70;98.20;;;;;;5092481;28;19908;-70
2022/07/29 08:06:43;;;;;;;;;;;12.70;97.90;;;;;;5092410;28;19916;-71
2022/07/29 08:09:10;;;;;;;;;;;12.80;97.80;;;;;;5092432;28;19954;-69
2022/07/29 08:11:45;;;;;;;;;;;12.80;98.20;;;;;;5095646;28;21336;-71
2022/07/29 08:14:13;;;;;;;;;;;12.70;98.20;;;;;;5092503;28;20278;-69
2022/07/29 08:16:41;;;;;;;;;;;12.70;98.40;;;;;;5092441;28;19912;-69
2022/07/29 08:19:08;;;;;;;;;;;12.70;98.80;;;;;;5092391;28;19939;-70
2022/07/29 08:21:35;;;;;;;;;;;12.60;98.80;;;;;;5092281;28;20423;-70
2022/07/29 08:26:47;;;;;;;;;;;12.60;98.90;;;;;;5092258;28;19939;-69
2022/07/29 08:29:14;;;;;;;;;;;12.60;99.30;;;;;;5092210;28;19912;-70
2022/07/29 08:31:41;;;;;;;;;;;12.60;99.20;;;;;;5092007;28;19912;-71
2022/07/29 08:34:08;;;;;;;;;;;12.60;99.50;;;;;;5091956;28;20349;-70
2022/07/29 08:36:34;;;;;;;;;;;12.60;99.40;;;;;;5091702;28;20015;-70
2022/07/29 08:39:02;;;;;;;;;;;12.60;99.70;;;;;;5092000;28;19938;-69
2022/07/29 08:41:29;;;;;;;;;;;12.50;99.80;;;;;;5092018;28;19994;-69
2022/07/29 08:43:55;;;;;;;;;;;12.60;99.90;;;;;;5091717;28;19915;-70
2022/07/29 08:46:25;;;;;;;;;;;12.60;99.90;;;;;;5091489;28;20018;-70
2022/07/29 08:48:51;;;;;;;;;;;12.60;99.90;;;;;;5091545;28;19923;-69
2022/07/29 08:51:19;;;;;;;;;;;12.60;99.90;;;;;;5091796;28;19912;-70
2022/07/29 08:53:48;;;;;;;;;;;12.50;99.90;;;;;;5091775;28;19919;-69
2022/07/29 08:56:18;;;;;;;;;;;12.60;99.90;;;;;;5091617;28;19910;-69
2022/07/29 08:58:47;;;;;;;;;;;12.60;99.90;;;;;;5091352;28;20002;-70
2022/07/29 09:01:24;;;;;;;;;;;12.70;99.90;;;;;;5089974;28;20344;-70
2022/07/29 09:03:51;;;;;;;;;;;12.60;99.90;;;;;;5093604;28;19908;-69
2022/07/29 09:06:20;;;;;;;;;;;12.60;99.90;;;;;;5093488;28;19916;-68
2022/07/29 09:08:46;;;;;;;;;;;12.60;99.90;;;;;;5093540;28;19908;-69
2022/07/29 09:11:14;;;;;;;;;;;12.60;99.90;;;;;;5093585;28;19914;-69
2022/07/29 09:13:41;;;;;;;;;;;12.60;99.90;;;;;;5093549;28;19998;-69
2022/07/29 09:16:07;;;;;;;;;;;12.60;99.90;;;;;;5093198;28;19963;-69
2022/07/29 09:18:35;;;;;;;;;;;12.60;99.90;;;;;;5077424;28;19909;-69
2022/07/29 09:24:06;;;;;;;;;;;12.60;99.90;;;;;;5053891;28;20313;-69
2022/07/29 09:26:34;;;;;;;;;;;12.50;99.90;;;;;;5057164;28;19916;-69
2022/07/29 09:29:07;;;;;;;;;;;12.50;99.90;;;;;;5057313;28;19955;-69
2022/07/29 09:31:36;;;;;;;;;;;12.50;99.90;;;;;;5057359;28;19915;-69
2022/07/29 09:34:03;;;;;;;;;;;12.50;99.90;;;;;;5056968;28;19909;-69
2022/07/29 09:36:30;;;;;;;;;;;12.60;99.90;;;;;;5057017;28;19909;-68
2022/07/29 09:38:58;;;;;;;;;;;12.60;99.90;;;;;;5057133;28;19924;-69
2022/07/29 09:41:25;;;;;;;;;;;12.60;99.90;;;;;;5057038;28;19975;-69
2022/07/29 09:43:56;;;;;;;;;;;12.50;99.90;;;;;;5057175;28;19936;-69
2022/07/29 09:46:23;;;;;;;;;;;12.50;99.90;;;;;;5058485;28;19917;-69
2022/07/29 09:49:08;;;;;;;;;;;12.40;99.90;;;;;;5057460;28;20371;-68
2022/07/29 09:51:35;;;;;;;;;;;12.30;99.90;;;;;;5056966;28;19971;-69
2022/07/29 09:54:04;;;;;;;;;;;12.30;99.90;;;;;;5056574;28;19909;-68
2022/07/29 09:56:41;;;;;;;;;;;12.30;99.90;;;;;;5055435;28;19966;-68
2022/07/29 09:59:08;;;;;;;;;;;12.20;99.90;;;;;;5056589;28;20016;-69
2022/07/29 10:01:35;;;;;;;;;;;12.20;99.90;;;;;;5056827;28;19917;-69
2022/07/29 10:04:03;;;;;;;;;;;12.20;99.90;;;;;;5056457;28;19952;-69
2022/07/29 10:06:29;;;;;;;;;;;12.10;99.90;;;;;;5056531;28;19916;-69
2022/07/29 10:09:08;;;;;;;;;;;12.10;99.90;;;;;;5056524;28;20410;-69
2022/07/29 10:11:34;;;;;;;;;;;12.00;99.90;;;;;;5056395;28;19908;-69
2022/07/29 10:14:03;;;;;;;;;;;12.00;99.90;;;;;;5056178;28;19912;-69
2022/07/29 10:16:32;;;;;;;;;;;11.90;99.90;;;;;;5056436;28;19955;-69
2022/07/29 10:19:00;;;;;;;;;;;11.90;99.90;;;;;;5056349;28;19908;-69
2022/07/29 10:21:26;;;;;;;;;;;11.90;99.90;;;;;;5056326;28;19978;-69
2022/07/29 10:23:53;;;;;;;;;;;11.80;99.90;;;;;;5056866;28;19908;-69
2022/07/29 10:26:20;;;;;;;;;;;11.80;99.90;;;;;;5055905;28;19917;-69
2022/07/29 10:28:47;;;;;;;;;;;11.80;99.90;;;;;;5056126;28;19909;-69
2022/07/29 10:31:19;;;;;;;;;;;11.80;99.90;;;;;;5056025;28;20002;-70
2022/07/29 10:33:52;;;;;;;;;;;11.70;99.90;;;;;;5056415;28;19909;-70
2022/07/29 10:36:25;;;;;;;;;;;11.70;99.90;;;;;;5054797;28;19915;-70
2022/07/29 10:38:59;;;;;;;;;;;11.70;99.90;;;;;;5055985;28;20389;-70
2022/07/29 10:41:29;;;;;;;;;;;11.60;99.90;;;;;;5055961;28;19996;-70
2022/07/29 10:44:01;;;;;;;;;;;11.50;99.90;;;;;;5055786;28;19916;-70
2022/07/29 10:46:28;;;;;;;;;;;11.60;99.90;;;;;;5055787;28;19920;-70
2022/07/29 10:49:12;;;;;;;;;;;11.50;99.90;;;;;;5055957;28;19912;-69
2022/07/29 10:51:51;;;;;;;;;;;11.40;99.90;;;;;;5055488;28;19909;-70
2022/07/29 10:54:19;;;;;;;;;;;11.40;99.90;;;;;;5055427;28;19909;-69
2022/07/29 10:56:46;;;;;;;;;;;11.40;99.90;;;;;;5055585;28;19954;-70
2022/07/29 10:59:23;;;;;;;;;;;11.30;99.90;;;;;;5055407;28;19913;-69
2022/07/29 11:01:51;;;;;;;;;;;11.30;99.90;;;;;;5055756;28;20338;-69
2022/07/29 11:04:36;;;;;;;;;;;11.30;99.90;;;;;;5055402;28;19915;-69
2022/07/29 11:07:06;;;;;;;;;;;11.20;99.90;;;;;;5055497;28;19924;-69
2022/07/29 11:09:33;;;;;;;;;;;11.20;99.90;;;;;;5055384;28;20283;-69
2022/07/29 11:12:00;;;;;;;;;;;11.10;99.90;;;;;;5055188;28;20304;-70
2022/07/29 11:14:45;;;;;;;;;;;11.20;99.90;;;;;;5055346;28;19947;-70
2022/07/29 11:17:11;;;;;;;;;;;11.10;99.90;;;;;;5055248;28;20427;-70
2022/07/29 11:19:41;;;;;;;;;;;11.10;99.90;;;;;;5055336;28;20275;-70
2022/07/29 11:22:09;;;;;;;;;;;11.10;99.90;;;;;;5055475;28;20352;-69
2022/07/29 11:24:36;;;;;;;;;;;11.10;99.90;;;;;;5057444;28;20009;-69
2022/07/29 11:27:13;;;;;;;;;;;11.00;99.90;;;;;;5055109;28;19917;-69
2022/07/29 11:29:48;;;;;;;;;;;11.00;99.90;;;;;;5055017;28;20003;-69
2022/07/29 11:32:17;;;;;;;;;;;11.00;99.90;;;;;;5054803;28;20282;-70
2022/07/29 11:34:44;;;;;;;;;;;10.90;99.90;;;;;;5054746;28;19909;-69
2022/07/29 11:37:14;;;;;;;;;;;10.90;99.90;;;;;;5054864;28;20409;-69
2022/07/29 11:39:44;;;;;;;;;;;10.90;99.90;;;;;;5054408;28;19912;-69
2022/07/29 11:42:17;;;;;;;;;;;10.90;99.90;;;;;;5054423;28;19912;-69
2022/07/29 11:45:02;;;;;;;;;;;10.80;99.90;;;;;;5054725;28;19909;-69
2022/07/29 11:47:29;;;;;;;;;;;10.90;99.90;;;;;;5054571;28;19917;-69
2022/07/29 11:50:00;;;;;;;;;;;10.80;99.90;;;;;;5054834;28;19913;-70
2022/07/29 11:52:57;;;;;;;;;;;10.80;99.90;;;;;;5054652;28;20320;-69
2022/07/29 11:55:24;;;;;;;;;;;10.80;99.90;;;;;;5053802;28;19994;-70
2022/07/29 11:57:52;;;;;;;;;;;10.80;99.90;;;;;;5054360;28;19908;-69
2022/07/29 12:00:24;;;;;;;;;;;10.70;99.90;;;;;;5053992;28;19967;-69
2022/07/29 12:02:51;;;;;;;;;;;10.80;99.90;;;;;;5054204;28;20294;-69
2022/07/29 12:05:18;;;;;;;;;;;10.70;99.90;;;;;;5054280;28;19920;-69
2022/07/29 12:07:45;;;;;;;;;;;10.70;99.90;;;;;;5054351;28;20004;-69
2022/07/29 12:10:12;;;;;;;;;;;10.70;99.90;;;;;;5053510;28;19913;-69
2022/07/29 12:12:39;;;;;;;;;;;10.70;99.90;;;;;;5054183;28;19909;-69
2022/07/29 12:15:17;;;;;;;;;;;10.70;99.90;;;;;;5054130;28;19948;-69
2022/07/29 12:17:44;;;;;;;;;;;10.70;99.90;;;;;;5054197;28;19916;-70
2022/07/29 12:20:12;;;;;;;;;;;10.70;99.90;;;;;;5053897;28;19909;-69
2022/07/29 12:22:41;;;;;;;;;;;10.70;99.90;;;;;;5054045;28;20003;-70
2022/07/29 12:25:10;;;;;;;;;;;10.80;99.90;;;;;;5052138;28;19948;-70
2022/07/29 12:27:39;;;;;;;;;;;10.80;99.90;;;;;;5053899;28;19913;-70
2022/07/29 12:30:07;;;;;;;;;;;10.80;99.90;;;;;;5053561;28;19910;-70
2022/07/29 12:32:38;;;;;;;;;;;10.70;99.90;;;;;;5053822;28;20007;-71
2022/07/29 12:35:07;;;;;;;;;;;10.80;99.90;;;;;;5052494;28;19909;-71
2022/07/29 12:37:36;;;;;;;;;;;10.70;99.90;;;;;;5053621;28;20283;-70
2022/07/29 12:40:04;;;;;;;;;;;10.70;99.90;;;;;;5052974;28;19920;-71
2022/07/29 12:42:31;;;;;;;;;;;10.70;99.90;;;;;;5053624;28;19919;-70
2022/07/29 12:44:58;;;;;;;;;;;10.70;99.90;;;;;;5053674;28;20370;-70
2022/07/29 12:47:25;;;;;;;;;;;10.70;99.90;;;;;;5053520;28;20336;-70
2022/07/29 12:50:07;;;;;;;;;;;10.70;99.90;;;;;;5053438;28;19920;-70
2022/07/29 12:52:34;;;;;;;;;;;10.70;99.90;;;;;;5053555;28;19916;-70
2022/07/29 12:55:02;;;;;;;;;;;10.60;99.90;;;;;;5052937;28;19920;-70
2022/07/29 12:57:29;;;;;;;;;;;10.50;99.90;;;;;;5052017;28;20011;-70
2022/07/29 13:00:04;;;;;;;;;;;10.50;99.90;;;;;;5052981;28;19920;-71
2022/07/29 13:02:31;;;;;;;;;;;10.50;99.90;;;;;;5054024;28;20355;-71
2022/07/29 13:05:01;;;;;;;;;;;10.50;99.90;;;;;;5053707;28;19912;-69
2022/07/29 13:07:29;;;;;;;;;;;10.50;99.90;;;;;;5053238;28;20368;-70
2022/07/29 13:10:12;;;;;;;;;;;10.50;99.90;;;;;;5052638;28;19912;-69
2022/07/29 13:12:39;;;;;;;;;;;10.60;99.90;;;;;;5053301;28;19915;-70
2022/07/29 13:15:16;;;;;;;;;;;10.60;99.90;;;;;;5053305;28;19909;-70
2022/07/29 13:17:43;;;;;;;;;;;10.60;99.90;;;;;;5052796;28;20279;-70
2022/07/29 13:20:14;;;;;;;;;;;10.60;99.90;;;;;;5053045;28;19916;-69
2022/07/29 13:22:42;;;;;;;;;;;10.60;99.90;;;;;;5053294;28;19958;-70
2022/07/29 13:25:09;;;;;;;;;;;10.60;99.90;;;;;;5052492;28;20394;-69
2022/07/29 13:27:37;;;;;;;;;;;10.60;99.90;;;;;;5053331;28;19951;-70
2022/07/29 13:30:05;;;;;;;;;;;10.60;99.90;;;;;;5052926;28;19947;-70
2022/07/29 13:32:36;;;;;;;;;;;10.50;99.90;;;;;;5053033;28;19916;-70
2022/07/29 13:35:04;;;;;;;;;;;10.40;99.90;;;;;;5053125;28;19913;-70
2022/07/29 13:37:33;;;;;;;;;;;10.40;99.90;;;;;;5053113;28;20003;-70
2022/07/29 13:40:02;;;;;;;;;;;10.40;99.90;;;;;;5052537;28;19951;-70
2022/07/29 13:42:29;;;;;;;;;;;10.40;99.90;;;;;;5053034;28;19912;-70
2022/07/29 13:44:56;;;;;;;;;;;10.30;99.90;;;;;;5052931;28;20363;-70
2022/07/29 13:47:22;;;;;;;;;;;10.30;99.90;;;;;;5052904;28;19916;-69
2022/07/29 13:49:49;;;;;;;;;;;10.40;99.90;;;;;;5052936;28;19942;-70
2022/07/29 13:52:16;;;;;;;;;;;10.30;99.90;;;;;;5052707;28;19909;-69
2022/07/29 13:54:43;;;;;;;;;;;10.30;99.90;;;;;;5052351;28;20015;-70
2022/07/29 13:57:12;;;;;;;;;;;10.30;99.90;;;;;;5052757;28;20022;-70
2022/07/29 13:59:39;;;;;;;;;;;10.30;99.90;;;;;;5052587;28;19917;-69
2022/07/29 14:02:06;;;;;;;;;;;10.30;99.90;;;;;;5052763;28;19915;-71
2022/07/29 14:04:33;;;;;;;;;;;10.30;99.90;;;;;;5052928;28;19916;-69
2022/07/29 14:06:59;;;;;;;;;;;10.20;99.90;;;;;;5052795;28;19916;-71
2022/07/29 14:09:26;;;;;;;;;;;10.20;99.90;;;;;;5052418;28;20360;-70
2022/07/29 14:11:53;;;;;;;;;;;10.10;99.90;;;;;;5055026;28;19948;-70
2022/07/29 14:14:20;;;;;;;;;;;10.00;99.90;;;;;;5055921;28;19909;-71
2022/07/29 14:16:47;;;;;;;;;;;9.90;99.90;;;;;;5056572;28;19908;-71
2022/07/29 14:19:14;;;;;;;;;;;9.90;99.90;;;;;;5056491;28;19909;-71
2022/07/29 14:21:40;;;;;;;;;;;9.90;99.90;;;;;;5056455;28;19909;-71
2022/07/29 14:24:07;;;;;;;;;;;9.80;99.90;;;;;;5056219;28;19909;-71
2022/07/29 14:26:34;;;;;;;;;;;9.80;99.90;;;;;;5056246;28;19920;-71
2022/07/29 14:29:00;;;;;;;;;;;9.80;99.90;;;;;;5056289;28;19909;-70
2022/07/29 14:31:27;;;;;;;;;;;9.80;99.90;;;;;;5056236;28;19995;-71
2022/07/29 14:33:54;;;;;;;;;;;9.80;99.90;;;;;;5056218;28;19909;-71